sensor_id;sensor_type;location;lat;lon;timestamp;pressure;altitude;pressure_sealevel;temperature;humidity
42385;BME280;28042;43.986;22.860;2023-07-16T00:02:09;101150.44;;;22.96;100.00
42385;BME280;28042;43.986;22.860;2023-07-16T00:04:34;101172.50;;;23.08;100.00
42385;BME280;28042;43.986;22.860;2023-07-16T00:07:00;101150.72;;;22.95;100.00
42385;BME280;28042;43.986;22.860;2023-07-16T00:09:27;101157.97;;;22.96;100.00
42385;BME280;28042;43.986;22.860;2023-07-16T00:11:53;101147.34;;;22.93;100.00
42385;BME280;28042;43.986;22.860;2023-07-16T00:14:18;101172.78;;;23.06;100.00
42385;BME280;28042;43.986;22.860;2023-07-16T00:16:44;101174.72;;;23.06;100.00
42385;BME280;28042;43.986;22.860;2023-07-16T00:19:10;101171.09;;;23.05;100.00
42385;BME280;28042;43.986;22.860;2023-07-16T00:21:37;101161.88;;;23.00;100.00
42385;BME280;28042;43.986;22.860;2023-07-16T00:24:03;101149.00;;;22.89;100.00
42385;BME280;28042;43.986;22.860;2023-07-16T00:26:28;101147.00;;;22.84;100.00
42385;BME280;28042;43.986;22.860;2023-07-16T00:28:54;101164.09;;;22.98;100.00
42385;BME280;28042;43.986;22.860;2023-07-16T00:31:19;101161.03;;;22.99;100.00
42385;BME280;28042;43.986;22.860;2023-07-16T00:33:45;101140.94;;;22.87;100.00
42385;BME280;28042;43.986;22.860;2023-07-16T00:36:10;101145.03;;;22.79;100.00
42385;BME280;28042;43.986;22.860;2023-07-16T00:38:36;101160.69;;;22.86;100.00
42385;BME280;28042;43.986;22.860;2023-07-16T00:41:01;101157.28;;;22.78;100.00
42385;BME280;28042;43.986;22.860;2023-07-16T00:43:27;101139.34;;;22.64;100.00
42385;BME280;28042;43.986;22.860;2023-07-16T00:45:53;101137.13;;;22.61;100.00
42385;BME280;28042;43.986;22.860;2023-07-16T00:48:18;101134.78;;;22.48;100.00
42385;BME280;28042;43.986;22.860;2023-07-16T00:50:44;101138.09;;;22.45;100.00
42385;BME280;28042;43.986;22.860;2023-07-16T00:53:10;101160.66;;;22.48;100.00
42385;BME280;28042;43.986;22.860;2023-07-16T00:55:36;101166.69;;;22.40;100.00
42385;BME280;28042;43.986;22.860;2023-07-16T00:58:03;101141.81;;;22.23;100.00
42385;BME280;28042;43.986;22.860;2023-07-16T01:00:38;101158.28;;;22.30;100.00
42385;BME280;28042;43.986;22.860;2023-07-16T01:03:09;101164.63;;;22.25;100.00
42385;BME280;28042;43.986;22.860;2023-07-16T01:05:45;101147.69;;;22.00;100.00
42385;BME280;28042;43.986;22.860;2023-07-16T01:08:14;101168.53;;;22.02;100.00
42385;BME280;28042;43.986;22.860;2023-07-16T01:10:45;101158.38;;;21.86;100.00
42385;BME280;28042;43.986;22.860;2023-07-16T01:13:11;101177.06;;;21.91;100.00
42385;BME280;28042;43.986;22.860;2023-07-16T01:15:37;101155.13;;;21.67;100.00
42385;BME280;28042;43.986;22.860;2023-07-16T01:18:04;101156.50;;;21.65;100.00
42385;BME280;28042;43.986;22.860;2023-07-16T01:20:30;101172.94;;;21.71;100.00
42385;BME280;28042;43.986;22.860;2023-07-16T01:31:43;101170.44;;;21.48;100.00
42385;BME280;28042;43.986;22.860;2023-07-16T01:34:11;101143.03;;;21.30;100.00
42385;BME280;28042;43.986;22.860;2023-07-16T01:36:37;101168.03;;;21.35;100.00
42385;BME280;28042;43.986;22.860;2023-07-16T01:39:05;101158.34;;;21.15;100.00
42385;BME280;28042;43.986;22.860;2023-07-16T01:41:31;101154.47;;;21.16;100.00
42385;BME280;28042;43.986;22.860;2023-07-16T01:43:56;101157.81;;;21.18;100.00
42385;BME280;28042;43.986;22.860;2023-07-16T01:46:22;101166.91;;;21.14;100.00
42385;BME280;28042;43.986;22.860;2023-07-16T01:48:47;101172.78;;;21.17;100.00
42385;BME280;28042;43.986;22.860;2023-07-16T01:51:13;101162.47;;;21.13;100.00
42385;BME280;28042;43.986;22.860;2023-07-16T01:53:40;101169.75;;;21.19;100.00
42385;BME280;28042;43.986;22.860;2023-07-16T01:56:05;101185.75;;;21.29;100.00
42385;BME280;28042;43.986;22.860;2023-07-16T01:58:31;101167.22;;;21.17;100.00
42385;BME280;28042;43.986;22.860;2023-07-16T02:00:57;101192.59;;;21.26;100.00
42385;BME280;28042;43.986;22.860;2023-07-16T02:03:23;101176.34;;;21.13;100.00
42385;BME280;28042;43.986;22.860;2023-07-16T02:05:48;101192.28;;;21.23;100.00
42385;BME280;28042;43.986;22.860;2023-07-16T02:08:14;101177.19;;;21.13;100.00
42385;BME280;28042;43.986;22.860;2023-07-16T02:10:39;101185.25;;;21.15;100.00
42385;BME280;28042;43.986;22.860;2023-07-16T02:13:05;101187.44;;;21.13;100.00
42385;BME280;28042;43.986;22.860;2023-07-16T02:15:30;101164.25;;;21.02;100.00
42385;BME280;28042;43.986;22.860;2023-07-16T02:17:56;101187.22;;;21.20;100.00
42385;BME280;28042;43.986;22.860;2023-07-16T02:20:21;101196.16;;;21.22;100.00
42385;BME280;28042;43.986;22.860;2023-07-16T02:22:47;101188.59;;;21.17;100.00
42385;BME280;28042;43.986;22.860;2023-07-16T02:25:12;101169.78;;;21.02;100.00
42385;BME280;28042;43.986;22.860;2023-07-16T02:27:38;101202.72;;;21.15;100.00
42385;BME280;28042;43.986;22.860;2023-07-16T02:30:04;101178.72;;;21.04;100.00
42385;BME280;28042;43.986;22.860;2023-07-16T02:32:31;101172.00;;;21.00;100.00
42385;BME280;28042;43.986;22.860;2023-07-16T02:34:56;101201.72;;;21.22;100.00
42385;BME280;28042;43.986;22.860;2023-07-16T02:37:22;101200.03;;;21.21;100.00
42385;BME280;28042;43.986;22.860;2023-07-16T02:39:47;101181.53;;;21.09;100.00
42385;BME280;28042;43.986;22.860;2023-07-16T02:42:13;101170.13;;;21.06;100.00
42385;BME280;28042;43.986;22.860;2023-07-16T02:44:38;101206.75;;;21.25;100.00
42385;BME280;28042;43.986;22.860;2023-07-16T02:47:08;101200.19;;;21.31;100.00
42385;BME280;28042;43.986;22.860;2023-07-16T02:49:34;101174.97;;;21.15;100.00
42385;BME280;28042;43.986;22.860;2023-07-16T02:51:59;101199.09;;;21.32;100.00
42385;BME280;28042;43.986;22.860;2023-07-16T02:54:25;101180.84;;;21.19;100.00
42385;BME280;28042;43.986;22.860;2023-07-16T02:56:50;101199.63;;;21.29;100.00
42385;BME280;28042;43.986;22.860;2023-07-16T02:59:16;101183.88;;;21.17;100.00
42385;BME280;28042;43.986;22.860;2023-07-16T03:01:41;101204.31;;;21.28;100.00
42385;BME280;28042;43.986;22.860;2023-07-16T03:04:07;101183.56;;;21.14;100.00
42385;BME280;28042;43.986;22.860;2023-07-16T03:06:32;101208.78;;;21.29;100.00
42385;BME280;28042;43.986;22.860;2023-07-16T03:08:57;101208.78;;;21.29;100.00
42385;BME280;28042;43.986;22.860;2023-07-16T03:11:23;101205.75;;;21.31;100.00
42385;BME280;28042;43.986;22.860;2023-07-16T03:13:48;101194.66;;;21.31;100.00
42385;BME280;28042;43.986;22.860;2023-07-16T03:16:14;101184.03;;;21.28;100.00
42385;BME280;28042;43.986;22.860;2023-07-16T03:18:39;101191.19;;;21.24;100.00
42385;BME280;28042;43.986;22.860;2023-07-16T03:21:05;101214.13;;;21.36;100.00
42385;BME280;28042;43.986;22.860;2023-07-16T03:23:30;101202.03;;;21.25;100.00
42385;BME280;28042;43.986;22.860;2023-07-16T03:25:57;101201.31;;;21.30;100.00
42385;BME280;28042;43.986;22.860;2023-07-16T03:28:23;101205.19;;;21.29;100.00
42385;BME280;28042;43.986;22.860;2023-07-16T03:30:49;101206.53;;;21.48;100.00
42385;BME280;28042;43.986;22.860;2023-07-16T03:33:15;101217.13;;;21.51;100.00
42385;BME280;28042;43.986;22.860;2023-07-16T03:35:45;101198.47;;;21.47;100.00
42385;BME280;28042;43.986;22.860;2023-07-16T03:38:11;101184.81;;;21.45;100.00
42385;BME280;28042;43.986;22.860;2023-07-16T03:40:37;101209.41;;;21.80;100.00
42385;BME280;28042;43.986;22.860;2023-07-16T03:43:02;101190.41;;;22.16;100.00
42385;BME280;28042;43.986;22.860;2023-07-16T03:45:28;101200.59;;;22.69;100.00
42385;BME280;28042;43.986;22.860;2023-07-16T03:47:53;101173.91;;;23.10;100.00
42385;BME280;28042;43.986;22.860;2023-07-16T03:50:19;101211.44;;;23.55;100.00
42385;BME280;28042;43.986;22.860;2023-07-16T03:52:45;101203.25;;;23.91;100.00
42385;BME280;28042;43.986;22.860;2023-07-16T03:55:10;101197.47;;;24.28;100.00
42385;BME280;28042;43.986;22.860;2023-07-16T03:57:36;101205.59;;;24.45;100.00
42385;BME280;28042;43.986;22.860;2023-07-16T04:00:04;101195.25;;;24.66;100.00
42385;BME280;28042;43.986;22.860;2023-07-16T04:02:36;101201.09;;;25.20;100.00
42385;BME280;28042;43.986;22.860;2023-07-16T04:05:02;101187.09;;;25.30;100.00
42385;BME280;28042;43.986;22.860;2023-07-16T04:07:28;101211.78;;;25.68;100.00
42385;BME280;28042;43.986;22.860;2023-07-16T04:09:53;101186.53;;;25.93;97.53
42385;BME280;28042;43.986;22.860;2023-07-16T04:12:19;101215.78;;;26.11;95.94
42385;BME280;28042;43.986;22.860;2023-07-16T04:14:44;101191.28;;;26.42;94.25
42385;BME280;28042;43.986;22.860;2023-07-16T04:17:10;101211.19;;;26.69;90.83
42385;BME280;28042;43.986;22.860;2023-07-16T04:19:35;101217.94;;;26.63;90.53
42385;BME280;28042;43.986;22.860;2023-07-16T04:22:01;101212.44;;;26.53;91.67
42385;BME280;28042;43.986;22.860;2023-07-16T04:24:27;101213.44;;;26.67;91.47
42385;BME280;28042;43.986;22.860;2023-07-16T04:26:53;101221.19;;;26.75;89.59
42385;BME280;28042;43.986;22.860;2023-07-16T04:29:19;101202.66;;;26.85;89.26
42385;BME280;28042;43.986;22.860;2023-07-16T04:31:45;101214.28;;;27.26;87.53
42385;BME280;28042;43.986;22.860;2023-07-16T04:34:10;101189.97;;;27.21;86.32
42385;BME280;28042;43.986;22.860;2023-07-16T04:36:35;101194.72;;;27.45;84.92
42385;BME280;28042;43.986;22.860;2023-07-16T04:39:01;101220.28;;;27.67;84.22
42385;BME280;28042;43.986;22.860;2023-07-16T04:41:27;101193.19;;;27.57;84.11
42385;BME280;28042;43.986;22.860;2023-07-16T04:43:52;101210.44;;;27.88;82.62
42385;BME280;28042;43.986;22.860;2023-07-16T04:46:18;101225.91;;;28.05;81.75
42385;BME280;28042;43.986;22.860;2023-07-16T04:48:43;101221.03;;;28.34;80.37
42385;BME280;28042;43.986;22.860;2023-07-16T04:51:08;101204.78;;;28.50;78.55
42385;BME280;28042;43.986;22.860;2023-07-16T04:53:34;101216.88;;;28.64;78.07
42385;BME280;28042;43.986;22.860;2023-07-16T04:55:59;101226.69;;;28.99;77.53
42385;BME280;28042;43.986;22.860;2023-07-16T04:58:25;101201.22;;;29.10;75.77
42385;BME280;28042;43.986;22.860;2023-07-16T05:00:50;101207.47;;;29.34;73.90
42385;BME280;28042;43.986;22.860;2023-07-16T05:03:16;101211.00;;;29.95;71.47
42385;BME280;28042;43.986;22.860;2023-07-16T05:05:41;101213.47;;;30.24;69.87
42385;BME280;28042;43.986;22.860;2023-07-16T05:08:07;101207.19;;;30.27;68.52
42385;BME280;28042;43.986;22.860;2023-07-16T05:10:33;101202.25;;;30.69;67.31
42385;BME280;28042;43.986;22.860;2023-07-16T05:12:58;101209.75;;;31.04;65.86
42385;BME280;28042;43.986;22.860;2023-07-16T05:15:24;101209.94;;;31.39;63.69
42385;BME280;28042;43.986;22.860;2023-07-16T05:17:49;101224.03;;;31.78;62.49
42385;BME280;28042;43.986;22.860;2023-07-16T05:20:15;101227.41;;;31.98;60.29
42385;BME280;28042;43.986;22.860;2023-07-16T05:22:40;101234.75;;;32.16;59.22
42385;BME280;28042;43.986;22.860;2023-07-16T05:25:06;101231.25;;;32.19;59.18
42385;BME280;28042;43.986;22.860;2023-07-16T05:27:31;101215.91;;;31.86;59.27
42385;BME280;28042;43.986;22.860;2023-07-16T05:29:57;101219.16;;;31.70;59.35
42385;BME280;28042;43.986;22.860;2023-07-16T05:32:22;101227.22;;;32.03;59.60
42385;BME280;28042;43.986;22.860;2023-07-16T05:34:48;101219.00;;;31.27;61.33
42385;BME280;28042;43.986;22.860;2023-07-16T05:37:13;101230.97;;;31.72;59.36
42385;BME280;28042;43.986;22.860;2023-07-16T05:39:39;101241.72;;;32.27;56.49
42385;BME280;28042;43.986;22.860;2023-07-16T05:42:05;101234.22;;;32.14;57.45
42385;BME280;28042;43.986;22.860;2023-07-16T05:44:31;101218.75;;;32.03;57.07
42385;BME280;28042;43.986;22.860;2023-07-16T05:46:56;101230.72;;;32.00;57.82
42385;BME280;28042;43.986;22.860;2023-07-16T05:49:24;101232.44;;;32.44;55.98
42385;BME280;28042;43.986;22.860;2023-07-16T05:51:51;101223.63;;;32.63;54.55
42385;BME280;28042;43.986;22.860;2023-07-16T05:54:16;101245.84;;;32.30;54.95
42385;BME280;28042;43.986;22.860;2023-07-16T05:56:42;101230.75;;;31.60;56.52
42385;BME280;28042;43.986;22.860;2023-07-16T05:59:07;101221.72;;;31.81;56.10
42385;BME280;28042;43.986;22.860;2023-07-16T06:01:32;101228.22;;;31.50;57.19
42385;BME280;28042;43.986;22.860;2023-07-16T06:03:58;101244.38;;;32.15;55.62
42385;BME280;28042;43.986;22.860;2023-07-16T06:06:23;101243.72;;;32.70;53.33
42385;BME280;28042;43.986;22.860;2023-07-16T06:08:50;101251.88;;;33.44;51.72
42385;BME280;28042;43.986;22.860;2023-07-16T06:11:15;101232.22;;;33.57;51.03
42385;BME280;28042;43.986;22.860;2023-07-16T06:13:41;101251.41;;;34.31;49.02
42385;BME280;28042;43.986;22.860;2023-07-16T06:16:06;101251.06;;;33.35;50.88
42385;BME280;28042;43.986;22.860;2023-07-16T06:18:32;101244.41;;;32.84;52.45
42385;BME280;28042;43.986;22.860;2023-07-16T06:20:57;101247.03;;;32.81;52.52
42385;BME280;28042;43.986;22.860;2023-07-16T06:23:23;101228.34;;;33.23;51.27
42385;BME280;28042;43.986;22.860;2023-07-16T06:25:53;101244.63;;;33.26;50.92
42385;BME280;28042;43.986;22.860;2023-07-16T06:28:20;101243.63;;;33.69;50.18
42385;BME280;28042;43.986;22.860;2023-07-16T06:30:45;101246.50;;;33.60;49.66
42385;BME280;28042;43.986;22.860;2023-07-16T06:33:10;101243.28;;;33.70;50.37
42385;BME280;28042;43.986;22.860;2023-07-16T06:35:36;101255.31;;;33.97;48.41
42385;BME280;28042;43.986;22.860;2023-07-16T06:38:02;101225.88;;;33.60;49.04
42385;BME280;28042;43.986;22.860;2023-07-16T06:40:28;101256.59;;;34.29;47.84
42385;BME280;28042;43.986;22.860;2023-07-16T06:42:53;101242.59;;;34.33;47.52
42385;BME280;28042;43.986;22.860;2023-07-16T06:45:20;101236.22;;;34.15;47.60
42385;BME280;28042;43.986;22.860;2023-07-16T06:47:45;101238.97;;;34.03;47.39
42385;BME280;28042;43.986;22.860;2023-07-16T06:50:11;101260.41;;;33.27;49.23
42385;BME280;28042;43.986;22.860;2023-07-16T06:52:36;101244.88;;;32.78;51.48
42385;BME280;28042;43.986;22.860;2023-07-16T06:55:02;101245.53;;;32.66;52.53
42385;BME280;28042;43.986;22.860;2023-07-16T06:57:28;101231.38;;;31.97;54.32
42385;BME280;28042;43.986;22.860;2023-07-16T06:59:53;101240.88;;;31.61;56.78
42385;BME280;28042;43.986;22.860;2023-07-16T07:02:18;101261.88;;;31.77;57.17
42385;BME280;28042;43.986;22.860;2023-07-16T07:04:44;101257.50;;;31.63;57.49
42385;BME280;28042;43.986;22.860;2023-07-16T07:07:10;101247.53;;;31.65;57.51
42385;BME280;28042;43.986;22.860;2023-07-16T07:09:35;101250.88;;;31.28;59.93
42385;BME280;28042;43.986;22.860;2023-07-16T07:12:01;101224.81;;;31.00;58.05
42385;BME280;28042;43.986;22.860;2023-07-16T07:14:26;101223.34;;;31.02;59.96
42385;BME280;28042;43.986;22.860;2023-07-16T07:16:52;101230.78;;;30.98;59.79
42385;BME280;28042;43.986;22.860;2023-07-16T07:19:17;101244.25;;;30.79;60.92
42385;BME280;28042;43.986;22.860;2023-07-16T07:21:43;101218.34;;;30.54;62.30
42385;BME280;28042;43.986;22.860;2023-07-16T07:24:08;101213.16;;;30.92;61.28
42385;BME280;28042;43.986;22.860;2023-07-16T07:26:34;101228.34;;;31.36;59.94
42385;BME280;28042;43.986;22.860;2023-07-16T07:28:59;101219.47;;;31.20;60.24
42385;BME280;28042;43.986;22.860;2023-07-16T07:31:24;101227.16;;;31.29;59.91
42385;BME280;28042;43.986;22.860;2023-07-16T07:33:50;101214.56;;;31.35;59.88
42385;BME280;28042;43.986;22.860;2023-07-16T07:36:15;101214.09;;;31.41;59.40
42385;BME280;28042;43.986;22.860;2023-07-16T07:38:42;101238.78;;;31.75;59.50
42385;BME280;28042;43.986;22.860;2023-07-16T07:41:08;101211.94;;;31.87;59.18
42385;BME280;28042;43.986;22.860;2023-07-16T07:43:33;101213.44;;;31.93;58.17
42385;BME280;28042;43.986;22.860;2023-07-16T07:45:59;101214.28;;;31.93;58.60
42385;BME280;28042;43.986;22.860;2023-07-16T07:48:24;101204.47;;;31.91;57.85
42385;BME280;28042;43.986;22.860;2023-07-16T07:50:49;101208.41;;;31.72;58.55
42385;BME280;28042;43.986;22.860;2023-07-16T07:53:16;101221.53;;;31.77;59.10
42385;BME280;28042;43.986;22.860;2023-07-16T07:55:43;101212.94;;;31.91;58.81
42385;BME280;28042;43.986;22.860;2023-07-16T07:58:09;101202.50;;;31.51;60.26
42385;BME280;28042;43.986;22.860;2023-07-16T08:00:35;101230.44;;;31.70;60.06
42385;BME280;28042;43.986;22.860;2023-07-16T08:03:00;101227.63;;;31.70;59.91
42385;BME280;28042;43.986;22.860;2023-07-16T08:05:26;101206.19;;;31.61;59.30
42385;BME280;28042;43.986;22.860;2023-07-16T08:07:52;101206.06;;;31.74;59.94
42385;BME280;28042;43.986;22.860;2023-07-16T08:10:19;101227.63;;;31.70;58.87
42385;BME280;28042;43.986;22.860;2023-07-16T08:12:44;101214.75;;;31.87;58.94
42385;BME280;28042;43.986;22.860;2023-07-16T08:15:10;101214.03;;;31.72;58.64
42385;BME280;28042;43.986;22.860;2023-07-16T08:17:43;101232.63;;;31.73;57.69
42385;BME280;28042;43.986;22.860;2023-07-16T08:20:10;101232.72;;;31.51;57.91
42385;BME280;28042;43.986;22.860;2023-07-16T08:22:36;101230.25;;;31.58;57.73
42385;BME280;28042;43.986;22.860;2023-07-16T08:25:02;101221.22;;;31.39;58.51
42385;BME280;28042;43.986;22.860;2023-07-16T08:27:29;101230.56;;;31.48;58.81
42385;BME280;28042;43.986;22.860;2023-07-16T08:29:54;101229.59;;;31.61;58.62
42385;BME280;28042;43.986;22.860;2023-07-16T08:32:20;101205.09;;;31.31;58.83
42385;BME280;28042;43.986;22.860;2023-07-16T08:34:46;101231.88;;;31.50;59.26
42385;BME280;28042;43.986;22.860;2023-07-16T08:37:11;101206.94;;;31.84;58.55
42385;BME280;28042;43.986;22.860;2023-07-16T08:39:37;101230.72;;;32.00;57.29
42385;BME280;28042;43.986;22.860;2023-07-16T08:42:04;101233.94;;;31.67;58.01
42385;BME280;28042;43.986;22.860;2023-07-16T08:44:30;101233.47;;;31.74;58.17
42385;BME280;28042;43.986;22.860;2023-07-16T08:46:56;101223.44;;;31.99;57.21
42385;BME280;28042;43.986;22.860;2023-07-16T08:49:22;101205.06;;;31.70;59.26
42385;BME280;28042;43.986;22.860;2023-07-16T08:51:48;101228.06;;;31.95;59.13
42385;BME280;28042;43.986;22.860;2023-07-16T08:54:13;101200.16;;;31.85;58.38
42385;BME280;28042;43.986;22.860;2023-07-16T08:56:46;101228.44;;;31.62;58.46
42385;BME280;28042;43.986;22.860;2023-07-16T08:59:14;101214.59;;;31.83;59.04
42385;BME280;28042;43.986;22.860;2023-07-16T09:01:40;101221.41;;;31.91;59.05
42385;BME280;28042;43.986;22.860;2023-07-16T09:04:05;101232.50;;;31.87;59.20
42385;BME280;28042;43.986;22.860;2023-07-16T09:06:31;101221.25;;;31.96;58.51
42385;BME280;28042;43.986;22.860;2023-07-16T09:08:56;101220.97;;;32.15;57.51
42385;BME280;28042;43.986;22.860;2023-07-16T09:11:22;101199.69;;;32.00;57.33
42385;BME280;28042;43.986;22.860;2023-07-16T09:13:48;101219.59;;;32.03;57.56
42385;BME280;28042;43.986;22.860;2023-07-16T09:16:14;101201.19;;;32.06;56.97
42385;BME280;28042;43.986;22.860;2023-07-16T09:18:42;101195.38;;;32.28;56.83
42385;BME280;28042;43.986;22.860;2023-07-16T09:21:07;101183.25;;;32.45;55.60
42385;BME280;28042;43.986;22.860;2023-07-16T09:23:34;101198.19;;;32.72;54.43
42385;BME280;28042;43.986;22.860;2023-07-16T09:26:00;101210.13;;;32.95;54.10
42385;BME280;28042;43.986;22.860;2023-07-16T09:28:25;101200.84;;;32.85;54.44
42385;BME280;28042;43.986;22.860;2023-07-16T09:30:51;101215.47;;;32.87;54.91
42385;BME280;28042;43.986;22.860;2023-07-16T09:33:21;101208.75;;;33.01;54.68
42385;BME280;28042;43.986;22.860;2023-07-16T09:35:50;101219.66;;;33.37;54.16
42385;BME280;28042;43.986;22.860;2023-07-16T09:38:17;101213.31;;;33.69;52.73
42385;BME280;28042;43.986;22.860;2023-07-16T09:40:44;101200.44;;;33.89;50.89
42385;BME280;28042;43.986;22.860;2023-07-16T09:43:11;101198.91;;;34.13;49.85
42385;BME280;28042;43.986;22.860;2023-07-16T09:45:36;101210.78;;;34.48;50.76
42385;BME280;28042;43.986;22.860;2023-07-16T09:48:03;101207.91;;;34.15;48.76
42385;BME280;28042;43.986;22.860;2023-07-16T09:50:29;101210.63;;;34.03;48.07
42385;BME280;28042;43.986;22.860;2023-07-16T09:52:55;101213.28;;;34.08;48.29
42385;BME280;28042;43.986;22.860;2023-07-16T09:55:22;101206.97;;;33.34;48.52
42385;BME280;28042;43.986;22.860;2023-07-16T09:57:48;101196.31;;;33.49;48.86
42385;BME280;28042;43.986;22.860;2023-07-16T10:00:15;101194.56;;;33.65;48.33
42385;BME280;28042;43.986;22.860;2023-07-16T10:02:43;101179.03;;;33.71;49.20
42385;BME280;28042;43.986;22.860;2023-07-16T10:05:25;101192.09;;;33.84;49.91
42385;BME280;28042;43.986;22.860;2023-07-16T10:07:59;101191.38;;;34.17;49.01
42385;BME280;28042;43.986;22.860;2023-07-16T10:10:42;101189.22;;;34.35;49.05
42385;BME280;28042;43.986;22.860;2023-07-16T10:13:08;101179.28;;;34.49;46.45
42385;BME280;28042;43.986;22.860;2023-07-16T10:15:36;101161.69;;;34.56;46.36
42385;BME280;28042;43.986;22.860;2023-07-16T10:18:02;101162.59;;;34.69;46.51
42385;BME280;28042;43.986;22.860;2023-07-16T10:20:33;101181.56;;;34.89;46.38
42385;BME280;28042;43.986;22.860;2023-07-16T10:22:59;101176.41;;;35.03;46.52
42385;BME280;28042;43.986;22.860;2023-07-16T10:25:34;101159.59;;;34.98;45.70
42385;BME280;28042;43.986;22.860;2023-07-16T10:28:00;101165.28;;;35.10;46.27
42385;BME280;28042;43.986;22.860;2023-07-16T10:30:26;101167.88;;;35.16;45.72
42385;BME280;28042;43.986;22.860;2023-07-16T10:32:51;101175.09;;;35.13;44.88
42385;BME280;28042;43.986;22.860;2023-07-16T10:35:19;101150.88;;;35.16;44.48
42385;BME280;28042;43.986;22.860;2023-07-16T10:37:45;101151.56;;;35.25;44.08
42385;BME280;28042;43.986;22.860;2023-07-16T10:40:12;101167.91;;;35.28;43.27
42385;BME280;28042;43.986;22.860;2023-07-16T10:42:41;101161.06;;;35.41;42.91
42385;BME280;28042;43.986;22.860;2023-07-16T10:45:07;101159.63;;;35.59;41.14
42385;BME280;28042;43.986;22.860;2023-07-16T10:47:36;101163.66;;;35.58;40.86
42385;BME280;28042;43.986;22.860;2023-07-16T10:50:09;101156.28;;;35.82;40.46
42385;BME280;28042;43.986;22.860;2023-07-16T10:52:35;101132.88;;;35.97;37.37
42385;BME280;28042;43.986;22.860;2023-07-16T10:55:01;101147.63;;;36.03;35.86
42385;BME280;28042;43.986;22.860;2023-07-16T10:57:27;101161.69;;;36.11;36.44
42385;BME280;28042;43.986;22.860;2023-07-16T10:59:55;101151.81;;;36.21;36.57
42385;BME280;28042;43.986;22.860;2023-07-16T11:02:22;101141.50;;;36.29;36.42
42385;BME280;28042;43.986;22.860;2023-07-16T11:04:49;101145.72;;;36.63;37.10
42385;BME280;28042;43.986;22.860;2023-07-16T11:07:15;101125.78;;;36.47;37.07
42385;BME280;28042;43.986;22.860;2023-07-16T11:09:46;101142.31;;;36.01;38.12
42385;BME280;28042;43.986;22.860;2023-07-16T11:12:14;101138.28;;;36.02;39.03
42385;BME280;28042;43.986;22.860;2023-07-16T11:14:48;101141.28;;;36.21;38.64
42385;BME280;28042;43.986;22.860;2023-07-16T11:17:14;101117.66;;;36.05;37.39
42385;BME280;28042;43.986;22.860;2023-07-16T11:19:43;101117.28;;;35.66;36.21
42385;BME280;28042;43.986;22.860;2023-07-16T11:22:10;101125.50;;;35.96;36.50
42385;BME280;28042;43.986;22.860;2023-07-16T11:27:15;101130.47;;;36.27;36.78
42385;BME280;28042;43.986;22.860;2023-07-16T11:29:47;101137.66;;;36.49;36.96
42385;BME280;28042;43.986;22.860;2023-07-16T11:32:25;101123.00;;;36.35;35.79
42385;BME280;28042;43.986;22.860;2023-07-16T11:34:57;101122.50;;;36.45;35.29
42385;BME280;28042;43.986;22.860;2023-07-16T11:37:28;101109.34;;;36.68;35.94
42385;BME280;28042;43.986;22.860;2023-07-16T11:40:02;101110.28;;;36.88;35.33
42385;BME280;28042;43.986;22.860;2023-07-16T11:42:34;101107.00;;;36.86;35.42
42385;BME280;28042;43.986;22.860;2023-07-16T11:44:59;101108.72;;;37.06;35.00
42385;BME280;28042;43.986;22.860;2023-07-16T11:47:26;101099.09;;;37.11;34.93
42385;BME280;28042;43.986;22.860;2023-07-16T11:49:52;101102.56;;;37.20;34.74
42385;BME280;28042;43.986;22.860;2023-07-16T11:52:29;101115.78;;;37.28;34.52
42385;BME280;28042;43.986;22.860;2023-07-16T11:54:58;101117.63;;;37.37;35.29
42385;BME280;28042;43.986;22.860;2023-07-16T11:57:29;101111.94;;;37.05;35.54
42385;BME280;28042;43.986;22.860;2023-07-16T11:59:54;101098.31;;;36.83;36.12
42385;BME280;28042;43.986;22.860;2023-07-16T12:02:20;101112.75;;;37.05;35.84
42385;BME280;28042;43.986;22.860;2023-07-16T12:04:46;101106.13;;;37.17;35.71
42385;BME280;28042;43.986;22.860;2023-07-16T12:07:12;101109.91;;;37.21;35.76
42385;BME280;28042;43.986;22.860;2023-07-16T12:09:37;101097.56;;;37.49;35.90
42385;BME280;28042;43.986;22.860;2023-07-16T12:12:03;101114.44;;;37.93;35.43
42385;BME280;28042;43.986;22.860;2023-07-16T12:14:28;101110.94;;;37.80;35.57
42385;BME280;28042;43.986;22.860;2023-07-16T12:16:54;101092.03;;;37.56;35.23
42385;BME280;28042;43.986;22.860;2023-07-16T12:19:20;101113.19;;;37.55;35.54
42385;BME280;28042;43.986;22.860;2023-07-16T12:21:45;101108.91;;;37.14;35.93
42385;BME280;28042;43.986;22.860;2023-07-16T12:24:11;101107.25;;;37.13;36.75
42385;BME280;28042;43.986;22.860;2023-07-16T12:26:36;101107.25;;;36.97;36.86
42385;BME280;28042;43.986;22.860;2023-07-16T12:29:02;101091.53;;;36.71;38.30
42385;BME280;28042;43.986;22.860;2023-07-16T12:31:30;101099.44;;;37.10;37.69
42385;BME280;28042;43.986;22.860;2023-07-16T12:33:57;101099.41;;;37.25;37.66
42385;BME280;28042;43.986;22.860;2023-07-16T12:36:22;101093.28;;;37.39;37.99
42385;BME280;28042;43.986;22.860;2023-07-16T12:38:47;101104.66;;;37.39;37.25
42385;BME280;28042;43.986;22.860;2023-07-16T12:41:13;101095.22;;;37.19;37.32
42385;BME280;28042;43.986;22.860;2023-07-16T12:43:40;101095.75;;;37.09;37.20
42385;BME280;28042;43.986;22.860;2023-07-16T12:46:06;101077.06;;;36.92;37.68